sensor_id;sensor_type;location;lat;lon;timestamp;P1;durP1;ratioP1;P2;durP2;ratioP2
20734;SDS011;10528;52.124;5.196;2022-11-15T00:00:24;29.48;;;17.95;;
20734;SDS011;10528;52.124;5.196;2022-11-15T00:03:12;30.13;;;17.38;;
20734;SDS011;10528;52.124;5.196;2022-11-15T00:06:03;38.00;;;18.67;;
20734;SDS011;10528;52.124;5.196;2022-11-15T00:08:49;35.40;;;18.88;;
20734;SDS011;10528;52.124;5.196;2022-11-15T00:11:34;34.80;;;17.90;;
20734;SDS011;10528;52.124;5.196;2022-11-15T00:14:20;38.35;;;19.13;;
20734;SDS011;10528;52.124;5.196;2022-11-15T00:17:07;35.67;;;18.27;;
20734;SDS011;10528;52.124;5.196;2022-11-15T00:19:52;34.40;;;19.92;;
20734;SDS011;10528;52.124;5.196;2022-11-15T00:22:38;37.08;;;19.20;;
20734;SDS011;10528;52.124;5.196;2022-11-15T00:25:23;38.38;;;20.52;;
20734;SDS011;10528;52.124;5.196;2022-11-15T00:28:09;40.25;;;20.95;;
20734;SDS011;10528;52.124;5.196;2022-11-15T00:31:05;35.80;;;19.88;;
20734;SDS011;10528;52.124;5.196;2022-11-15T00:33:55;38.75;;;19.73;;
20734;SDS011;10528;52.124;5.196;2022-11-15T00:36:40;41.78;;;21.90;;
20734;SDS011;10528;52.124;5.196;2022-11-15T00:39:26;40.90;;;21.15;;
20734;SDS011;10528;52.124;5.196;2022-11-15T00:42:12;44.75;;;21.27;;
20734;SDS011;10528;52.124;5.196;2022-11-15T00:44:57;47.22;;;22.08;;
20734;SDS011;10528;52.124;5.196;2022-11-15T00:47:46;36.72;;;20.05;;
20734;SDS011;10528;52.124;5.196;2022-11-15T00:50:31;45.90;;;22.65;;
20734;SDS011;10528;52.124;5.196;2022-11-15T00:53:17;39.50;;;21.58;;
20734;SDS011;10528;52.124;5.196;2022-11-15T00:56:02;44.50;;;22.25;;
20734;SDS011;10528;52.124;5.196;2022-11-15T00:58:48;47.30;;;21.77;;
20734;SDS011;10528;52.124;5.196;2022-11-15T01:01:34;42.70;;;22.17;;
20734;SDS011;10528;52.124;5.196;2022-11-15T01:04:19;40.42;;;21.75;;
20734;SDS011;10528;52.124;5.196;2022-11-15T01:07:05;36.65;;;21.05;;
20734;SDS011;10528;52.124;5.196;2022-11-15T01:09:50;39.92;;;21.13;;
20734;SDS011;10528;52.124;5.196;2022-11-15T01:12:36;39.92;;;20.75;;
20734;SDS011;10528;52.124;5.196;2022-11-15T01:15:21;44.10;;;22.10;;
20734;SDS011;10528;52.124;5.196;2022-11-15T01:18:06;41.25;;;20.58;;
20734;SDS011;10528;52.124;5.196;2022-11-15T01:20:52;48.58;;;23.55;;
20734;SDS011;10528;52.124;5.196;2022-11-15T01:23:37;41.38;;;22.15;;
20734;SDS011;10528;52.124;5.196;2022-11-15T01:26:24;47.42;;;21.83;;
20734;SDS011;10528;52.124;5.196;2022-11-15T01:29:10;38.70;;;21.73;;
20734;SDS011;10528;52.124;5.196;2022-11-15T01:31:55;40.58;;;21.60;;
20734;SDS011;10528;52.124;5.196;2022-11-15T01:34:41;37.92;;;21.00;;
20734;SDS011;10528;52.124;5.196;2022-11-15T01:37:26;42.22;;;21.80;;
20734;SDS011;10528;52.124;5.196;2022-11-15T01:40:12;42.38;;;22.90;;
20734;SDS011;10528;52.124;5.196;2022-11-15T01:42:57;39.63;;;20.45;;
20734;SDS011;10528;52.124;5.196;2022-11-15T01:45:43;40.65;;;21.33;;
20734;SDS011;10528;52.124;5.196;2022-11-15T01:48:35;37.80;;;21.25;;
20734;SDS011;10528;52.124;5.196;2022-11-15T01:51:21;41.78;;;22.27;;
20734;SDS011;10528;52.124;5.196;2022-11-15T01:54:11;44.38;;;21.92;;
20734;SDS011;10528;52.124;5.196;2022-11-15T01:57:08;43.88;;;22.33;;
20734;SDS011;10528;52.124;5.196;2022-11-15T01:59:56;43.08;;;22.95;;
20734;SDS011;10528;52.124;5.196;2022-11-15T02:02:44;38.63;;;21.50;;
20734;SDS011;10528;52.124;5.196;2022-11-15T02:05:30;43.88;;;22.15;;
20734;SDS011;10528;52.124;5.196;2022-11-15T02:08:16;45.00;;;23.55;;
20734;SDS011;10528;52.124;5.196;2022-11-15T02:11:07;49.83;;;23.65;;
20734;SDS011;10528;52.124;5.196;2022-11-15T02:13:54;43.03;;;22.83;;
20734;SDS011;10528;52.124;5.196;2022-11-15T02:16:58;44.75;;;23.15;;
20734;SDS011;10528;52.124;5.196;2022-11-15T02:23:25;47.10;;;24.05;;
20734;SDS011;10528;52.124;5.196;2022-11-15T02:33:26;45.55;;;21.80;;
20734;SDS011;10528;52.124;5.196;2022-11-15T02:36:41;45.85;;;22.75;;
20734;SDS011;10528;52.124;5.196;2022-11-15T02:42:32;43.30;;;23.35;;
20734;SDS011;10528;52.124;5.196;2022-11-15T02:45:45;39.63;;;22.75;;
20734;SDS011;10528;52.124;5.196;2022-11-15T02:48:38;48.13;;;24.23;;
20734;SDS011;10528;52.124;5.196;2022-11-15T02:51:26;38.88;;;23.70;;
20734;SDS011;10528;52.124;5.196;2022-11-15T02:54:15;45.42;;;23.88;;
20734;SDS011;10528;52.124;5.196;2022-11-15T02:57:10;41.15;;;23.63;;
20734;SDS011;10528;52.124;5.196;2022-11-15T03:00:04;45.38;;;23.98;;
20734;SDS011;10528;52.124;5.196;2022-11-15T03:06:18;40.92;;;22.73;;
20734;SDS011;10528;52.124;5.196;2022-11-15T03:09:10;35.53;;;21.85;;
20734;SDS011;10528;52.124;5.196;2022-11-15T03:12:26;41.00;;;22.73;;
20734;SDS011;10528;52.124;5.196;2022-11-15T03:15:37;39.35;;;22.35;;
20734;SDS011;10528;52.124;5.196;2022-11-15T03:18:30;43.55;;;22.30;;
20734;SDS011;10528;52.124;5.196;2022-11-15T03:21:20;40.08;;;23.20;;
20734;SDS011;10528;52.124;5.196;2022-11-15T03:24:08;38.75;;;21.10;;
20734;SDS011;10528;52.124;5.196;2022-11-15T03:26:57;41.05;;;23.27;;
20734;SDS011;10528;52.124;5.196;2022-11-15T03:29:46;37.42;;;22.10;;
20734;SDS011;10528;52.124;5.196;2022-11-15T03:32:41;44.55;;;22.30;;
20734;SDS011;10528;52.124;5.196;2022-11-15T03:35:40;45.03;;;21.85;;
20734;SDS011;10528;52.124;5.196;2022-11-15T03:38:29;37.95;;;21.10;;
20734;SDS011;10528;52.124;5.196;2022-11-15T03:41:22;37.90;;;21.73;;
20734;SDS011;10528;52.124;5.196;2022-11-15T03:47:39;37.08;;;21.50;;
20734;SDS011;10528;52.124;5.196;2022-11-15T03:50:29;35.60;;;22.63;;
20734;SDS011;10528;52.124;5.196;2022-11-15T03:53:16;38.33;;;22.40;;
20734;SDS011;10528;52.124;5.196;2022-11-15T03:56:02;37.30;;;21.67;;
20734;SDS011;10528;52.124;5.196;2022-11-15T03:58:47;40.45;;;22.13;;
20734;SDS011;10528;52.124;5.196;2022-11-15T04:01:33;38.97;;;21.88;;
20734;SDS011;10528;52.124;5.196;2022-11-15T04:04:18;35.20;;;22.67;;
20734;SDS011;10528;52.124;5.196;2022-11-15T04:07:04;38.35;;;22.52;;
20734;SDS011;10528;52.124;5.196;2022-11-15T04:09:50;32.35;;;21.23;;
20734;SDS011;10528;52.124;5.196;2022-11-15T04:12:47;35.30;;;21.20;;
20734;SDS011;10528;52.124;5.196;2022-11-15T04:15:33;33.15;;;21.10;;
20734;SDS011;10528;52.124;5.196;2022-11-15T04:18:19;34.58;;;21.38;;
20734;SDS011;10528;52.124;5.196;2022-11-15T04:21:04;33.45;;;21.33;;
20734;SDS011;10528;52.124;5.196;2022-11-15T04:24:09;31.63;;;21.17;;
20734;SDS011;10528;52.124;5.196;2022-11-15T04:26:57;30.77;;;20.30;;
20734;SDS011;10528;52.124;5.196;2022-11-15T04:29:42;32.72;;;20.20;;
20734;SDS011;10528;52.124;5.196;2022-11-15T04:32:28;32.63;;;20.80;;
20734;SDS011;10528;52.124;5.196;2022-11-15T04:35:13;30.23;;;21.15;;
20734;SDS011;10528;52.124;5.196;2022-11-15T04:37:58;30.90;;;20.83;;
20734;SDS011;10528;52.124;5.196;2022-11-15T04:40:46;35.58;;;21.27;;
20734;SDS011;10528;52.124;5.196;2022-11-15T04:43:31;29.77;;;20.23;;
20734;SDS011;10528;52.124;5.196;2022-11-15T04:46:17;28.27;;;19.20;;
20734;SDS011;10528;52.124;5.196;2022-11-15T04:49:03;29.55;;;19.77;;
20734;SDS011;10528;52.124;5.196;2022-11-15T04:51:48;27.27;;;19.73;;
20734;SDS011;10528;52.124;5.196;2022-11-15T04:54:34;29.50;;;19.77;;
20734;SDS011;10528;52.124;5.196;2022-11-15T04:57:19;30.65;;;19.42;;
20734;SDS011;10528;52.124;5.196;2022-11-15T05:00:06;32.33;;;20.42;;
20734;SDS011;10528;52.124;5.196;2022-11-15T05:02:58;28.25;;;19.05;;
20734;SDS011;10528;52.124;5.196;2022-11-15T05:06:02;30.90;;;19.65;;
20734;SDS011;10528;52.124;5.196;2022-11-15T05:08:47;25.95;;;18.60;;
20734;SDS011;10528;52.124;5.196;2022-11-15T05:11:33;27.25;;;18.60;;
20734;SDS011;10528;52.124;5.196;2022-11-15T05:14:18;25.92;;;19.40;;
20734;SDS011;10528;52.124;5.196;2022-11-15T05:17:04;31.17;;;18.90;;
20734;SDS011;10528;52.124;5.196;2022-11-15T05:19:49;26.60;;;18.02;;
20734;SDS011;10528;52.124;5.196;2022-11-15T05:22:36;25.00;;;18.00;;
20734;SDS011;10528;52.124;5.196;2022-11-15T05:25:22;26.60;;;18.02;;
20734;SDS011;10528;52.124;5.196;2022-11-15T05:28:08;26.17;;;18.42;;
20734;SDS011;10528;52.124;5.196;2022-11-15T05:30:59;28.85;;;18.45;;
20734;SDS011;10528;52.124;5.196;2022-11-15T05:33:53;24.23;;;17.73;;
20734;SDS011;10528;52.124;5.196;2022-11-15T05:36:41;28.17;;;18.70;;
20734;SDS011;10528;52.124;5.196;2022-11-15T05:39:29;24.92;;;18.33;;
20734;SDS011;10528;52.124;5.196;2022-11-15T05:42:14;28.75;;;18.25;;
20734;SDS011;10528;52.124;5.196;2022-11-15T05:45:01;26.98;;;17.58;;
20734;SDS011;10528;52.124;5.196;2022-11-15T05:47:50;22.70;;;17.83;;
20734;SDS011;10528;52.124;5.196;2022-11-15T05:50:38;23.15;;;17.77;;
20734;SDS011;10528;52.124;5.196;2022-11-15T05:53:29;27.08;;;18.05;;
20734;SDS011;10528;52.124;5.196;2022-11-15T05:56:15;26.67;;;17.67;;
20734;SDS011;10528;52.124;5.196;2022-11-15T05:59:01;21.67;;;16.58;;
20734;SDS011;10528;52.124;5.196;2022-11-15T06:01:48;25.55;;;17.10;;
20734;SDS011;10528;52.124;5.196;2022-11-15T06:04:33;23.83;;;17.50;;
20734;SDS011;10528;52.124;5.196;2022-11-15T06:07:18;24.40;;;17.85;;
20734;SDS011;10528;52.124;5.196;2022-11-15T06:10:04;24.70;;;17.05;;
20734;SDS011;10528;52.124;5.196;2022-11-15T06:12:57;24.30;;;18.17;;
20734;SDS011;10528;52.124;5.196;2022-11-15T06:15:47;24.38;;;17.73;;
20734;SDS011;10528;52.124;5.196;2022-11-15T06:18:33;25.38;;;18.02;;
20734;SDS011;10528;52.124;5.196;2022-11-15T06:21:19;24.92;;;17.60;;
20734;SDS011;10528;52.124;5.196;2022-11-15T06:24:05;29.30;;;18.65;;
20734;SDS011;10528;52.124;5.196;2022-11-15T06:26:51;24.40;;;17.48;;
20734;SDS011;10528;52.124;5.196;2022-11-15T06:29:37;27.05;;;19.17;;
20734;SDS011;10528;52.124;5.196;2022-11-15T06:32:22;26.52;;;18.75;;
20734;SDS011;10528;52.124;5.196;2022-11-15T06:35:08;24.75;;;18.00;;
20734;SDS011;10528;52.124;5.196;2022-11-15T06:37:53;28.25;;;18.50;;
20734;SDS011;10528;52.124;5.196;2022-11-15T06:40:39;29.02;;;19.90;;
20734;SDS011;10528;52.124;5.196;2022-11-15T06:43:24;24.40;;;17.45;;
20734;SDS011;10528;52.124;5.196;2022-11-15T06:46:10;27.38;;;19.02;;
20734;SDS011;10528;52.124;5.196;2022-11-15T06:48:55;26.60;;;17.90;;
20734;SDS011;10528;52.124;5.196;2022-11-15T06:51:41;23.30;;;17.77;;
20734;SDS011;10528;52.124;5.196;2022-11-15T06:54:26;26.38;;;18.27;;
20734;SDS011;10528;52.124;5.196;2022-11-15T06:57:12;23.98;;;17.20;;
20734;SDS011;10528;52.124;5.196;2022-11-15T06:59:57;23.85;;;17.30;;
20734;SDS011;10528;52.124;5.196;2022-11-15T07:02:43;27.17;;;18.30;;
20734;SDS011;10528;52.124;5.196;2022-11-15T07:05:29;27.17;;;18.55;;
20734;SDS011;10528;52.124;5.196;2022-11-15T07:08:14;25.90;;;18.70;;
20734;SDS011;10528;52.124;5.196;2022-11-15T07:11:01;24.00;;;17.20;;
20734;SDS011;10528;52.124;5.196;2022-11-15T07:13:50;24.92;;;17.40;;
20734;SDS011;10528;52.124;5.196;2022-11-15T07:16:35;22.35;;;16.80;;
20734;SDS011;10528;52.124;5.196;2022-11-15T07:19:22;27.58;;;17.98;;
20734;SDS011;10528;52.124;5.196;2022-11-15T07:22:07;27.83;;;17.60;;
20734;SDS011;10528;52.124;5.196;2022-11-15T07:24:53;23.67;;;17.77;;
20734;SDS011;10528;52.124;5.196;2022-11-15T07:27:39;26.75;;;16.92;;
20734;SDS011;10528;52.124;5.196;2022-11-15T07:30:25;23.38;;;16.20;;
20734;SDS011;10528;52.124;5.196;2022-11-15T07:33:11;23.35;;;16.85;;
20734;SDS011;10528;52.124;5.196;2022-11-15T07:36:01;24.63;;;15.77;;
20734;SDS011;10528;52.124;5.196;2022-11-15T07:38:51;19.95;;;15.18;;
20734;SDS011;10528;52.124;5.196;2022-11-15T07:41:36;25.75;;;16.45;;
20734;SDS011;10528;52.124;5.196;2022-11-15T07:44:23;22.23;;;15.43;;
20734;SDS011;10528;52.124;5.196;2022-11-15T07:47:10;20.00;;;14.85;;
20734;SDS011;10528;52.124;5.196;2022-11-15T07:49:55;21.27;;;15.32;;
20734;SDS011;10528;52.124;5.196;2022-11-15T07:52:41;27.42;;;15.65;;
20734;SDS011;10528;52.124;5.196;2022-11-15T07:55:27;22.95;;;15.00;;
20734;SDS011;10528;52.124;5.196;2022-11-15T07:58:14;21.60;;;14.75;;
20734;SDS011;10528;52.124;5.196;2022-11-15T08:01:06;21.10;;;12.60;;
20734;SDS011;10528;52.124;5.196;2022-11-15T08:03:55;17.13;;;13.48;;
20734;SDS011;10528;52.124;5.196;2022-11-15T08:06:40;20.98;;;13.73;;
20734;SDS011;10528;52.124;5.196;2022-11-15T08:09:25;21.05;;;13.82;;
20734;SDS011;10528;52.124;5.196;2022-11-15T08:12:11;21.73;;;13.77;;
20734;SDS011;10528;52.124;5.196;2022-11-15T08:14:57;22.80;;;14.25;;
20734;SDS011;10528;52.124;5.196;2022-11-15T08:17:42;21.73;;;13.32;;
20734;SDS011;10528;52.124;5.196;2022-11-15T08:20:28;21.08;;;13.55;;
20734;SDS011;10528;52.124;5.196;2022-11-15T08:23:15;19.63;;;12.80;;
20734;SDS011;10528;52.124;5.196;2022-11-15T08:26:02;16.98;;;11.68;;
20734;SDS011;10528;52.124;5.196;2022-11-15T08:28:49;20.02;;;13.27;;
20734;SDS011;10528;52.124;5.196;2022-11-15T08:31:35;18.95;;;12.23;;
20734;SDS011;10528;52.124;5.196;2022-11-15T08:34:21;18.30;;;12.15;;
20734;SDS011;10528;52.124;5.196;2022-11-15T08:37:06;17.63;;;12.20;;
20734;SDS011;10528;52.124;5.196;2022-11-15T08:39:52;19.15;;;11.95;;
20734;SDS011;10528;52.124;5.196;2022-11-15T08:42:38;20.58;;;11.57;;
20734;SDS011;10528;52.124;5.196;2022-11-15T08:45:23;16.15;;;11.23;;
20734;SDS011;10528;52.124;5.196;2022-11-15T08:48:09;19.35;;;11.48;;
20734;SDS011;10528;52.124;5.196;2022-11-15T08:50:55;17.52;;;11.52;;
20734;SDS011;10528;52.124;5.196;2022-11-15T08:53:41;15.32;;;11.65;;
20734;SDS011;10528;52.124;5.196;2022-11-15T08:56:27;17.40;;;11.00;;
20734;SDS011;10528;52.124;5.196;2022-11-15T08:59:13;18.10;;;11.52;;
20734;SDS011;10528;52.124;5.196;2022-11-15T09:01:59;15.45;;;10.80;;
20734;SDS011;10528;52.124;5.196;2022-11-15T09:04:45;14.95;;;10.40;;
20734;SDS011;10528;52.124;5.196;2022-11-15T09:07:30;15.52;;;10.07;;
20734;SDS011;10528;52.124;5.196;2022-11-15T09:10:16;15.02;;;9.50;;
20734;SDS011;10528;52.124;5.196;2022-11-15T09:13:02;14.85;;;9.05;;
20734;SDS011;10528;52.124;5.196;2022-11-15T09:15:48;14.35;;;8.88;;
20734;SDS011;10528;52.124;5.196;2022-11-15T09:18:33;11.80;;;9.07;;
20734;SDS011;10528;52.124;5.196;2022-11-15T09:21:19;12.93;;;8.93;;
20734;SDS011;10528;52.124;5.196;2022-11-15T09:24:05;12.80;;;8.55;;
20734;SDS011;10528;52.124;5.196;2022-11-15T09:26:51;15.98;;;8.82;;
20734;SDS011;10528;52.124;5.196;2022-11-15T09:29:36;13.32;;;8.68;;
20734;SDS011;10528;52.124;5.196;2022-11-15T09:32:22;16.63;;;8.82;;
20734;SDS011;10528;52.124;5.196;2022-11-15T09:35:08;15.32;;;8.63;;
20734;SDS011;10528;52.124;5.196;2022-11-15T09:37:54;12.00;;;8.80;;
20734;SDS011;10528;52.124;5.196;2022-11-15T09:40:40;15.30;;;8.77;;
20734;SDS011;10528;52.124;5.196;2022-11-15T09:44:13;13.65;;;9.00;;
20734;SDS011;10528;52.124;5.196;2022-11-15T09:50:09;14.23;;;7.60;;
20734;SDS011;10528;52.124;5.196;2022-11-15T09:52:39;12.05;;;7.13;;
20734;SDS011;10528;52.124;5.196;2022-11-15T09:55:10;11.57;;;7.28;;
20734;SDS011;10528;52.124;5.196;2022-11-15T09:57:52;13.25;;;7.30;;
20734;SDS011;10528;52.124;5.196;2022-11-15T10:00:33;12.63;;;6.50;;
20734;SDS011;10528;52.124;5.196;2022-11-15T10:03:14;13.52;;;6.10;;
20734;SDS011;10528;52.124;5.196;2022-11-15T10:05:59;7.95;;;6.03;;
20734;SDS011;10528;52.124;5.196;2022-11-15T10:08:40;9.75;;;5.97;;
20734;SDS011;10528;52.124;5.196;2022-11-15T10:11:32;10.52;;;5.75;;
20734;SDS011;10528;52.124;5.196;2022-11-15T10:14:08;10.93;;;6.15;;
20734;SDS011;10528;52.124;5.196;2022-11-15T10:16:49;12.50;;;5.82;;
20734;SDS011;10528;52.124;5.196;2022-11-15T10:22:48;7.07;;;5.43;;
20734;SDS011;10528;52.124;5.196;2022-11-15T10:25:26;8.00;;;5.25;;
20734;SDS011;10528;52.124;5.196;2022-11-15T10:27:59;8.60;;;5.68;;
20734;SDS011;10528;52.124;5.196;2022-11-15T10:30:42;9.25;;;5.88;;
20734;SDS011;10528;52.124;5.196;2022-11-15T10:38:51;10.35;;;5.80;;
20734;SDS011;10528;52.124;5.196;2022-11-15T10:41:27;10.35;;;5.70;;
20734;SDS011;10528;52.124;5.196;2022-11-15T10:49:26;9.13;;;5.53;;
20734;SDS011;10528;52.124;5.196;2022-11-15T10:51:56;8.70;;;4.75;;
20734;SDS011;10528;52.124;5.196;2022-11-15T10:54:28;7.88;;;4.32;;
20734;SDS011;10528;52.124;5.196;2022-11-15T10:57:07;7.88;;;5.00;;
20734;SDS011;10528;52.124;5.196;2022-11-15T11:10:37;6.95;;;3.50;;
20734;SDS011;10528;52.124;5.196;2022-11-15T11:16:16;5.30;;;2.42;;
20734;SDS011;10528;52.124;5.196;2022-11-15T11:24:44;4.80;;;2.03;;
20734;SDS011;10528;52.124;5.196;2022-11-15T11:30:09;5.47;;;2.40;;
20734;SDS011;10528;52.124;5.196;2022-11-15T11:32:49;5.18;;;1.77;;
20734;SDS011;10528;52.124;5.196;2022-11-15T11:36:03;4.18;;;2.03;;
20734;SDS011;10528;52.124;5.196;2022-11-15T11:45:19;4.32;;;1.90;;
20734;SDS011;10528;52.124;5.196;2022-11-15T11:50:40;7.18;;;1.80;;
20734;SDS011;10528;52.124;5.196;2022-11-15T11:53:15;4.70;;;1.38;;
20734;SDS011;10528;52.124;5.196;2022-11-15T11:56:14;4.03;;;1.92;;
20734;SDS011;10528;52.124;5.196;2022-11-15T11:58:56;4.25;;;1.58;;
20734;SDS011;10528;52.124;5.196;2022-11-15T12:01:39;4.95;;;1.85;;
20734;SDS011;10528;52.124;5.196;2022-11-15T12:04:18;5.13;;;1.30;;
20734;SDS011;10528;52.124;5.196;2022-11-15T12:12:30;4.78;;;1.20;;
20734;SDS011;10528;52.124;5.196;2022-11-15T12:17:35;6.90;;;1.50;;
20734;SDS011;10528;52.124;5.196;2022-11-15T12:20:06;3.17;;;1.10;;
20734;SDS011;10528;52.124;5.196;2022-11-15T12:22:53;5.68;;;1.40;;
20734;SDS011;10528;52.124;5.196;2022-11-15T12:25:35;4.22;;;1.23;;
20734;SDS011;10528;52.124;5.196;2022-11-15T12:36:47;7.68;;;1.25;;
20734;SDS011;10528;52.124;5.196;2022-11-15T12:39:16;5.15;;;0.98;;
20734;SDS011;10528;52.124;5.196;2022-11-15T12:42:34;7.10;;;1.13;;
20734;SDS011;10528;52.124;5.196;2022-11-15T12:46:59;4.53;;;1.38;;
20734;SDS011;10528;52.124;5.196;2022-11-15T12:49:50;3.97;;;1.27;;
20734;SDS011;10528;52.124;5.196;2022-11-15T12:52:17;6.68;;;1.30;;
20734;SDS011;10528;52.124;5.196;2022-11-15T12:54:56;4.10;;;1.40;;
20734;SDS011;10528;52.124;5.196;2022-11-15T12:57:29;5.13;;;1.30;;
20734;SDS011;10528;52.124;5.196;2022-11-15T13:02:51;3.03;;;0.85;;
20734;SDS011;10528;52.124;5.196;2022-11-15T13:05:55;6.80;;;1.27;;
20734;SDS011;10528;52.124;5.196;2022-11-15T13:17:53;4.65;;;1.10;;
20734;SDS011;10528;52.124;5.196;2022-11-15T13:20:23;7.50;;;1.10;;
20734;SDS011;10528;52.124;5.196;2022-11-15T13:31:19;3.88;;;0.90;;
20734;SDS011;10528;52.124;5.196;2022-11-15T13:34:14;4.88;;;1.02;;
20734;SDS011;10528;52.124;5.196;2022-11-15T13:39:47;3.13;;;1.30;;
20734;SDS011;10528;52.124;5.196;2022-11-15T13:42:16;3.90;;;1.05;;
20734;SDS011;10528;52.124;5.196;2022-11-15T13:44:56;6.95;;;1.40;;
20734;SDS011;10528;52.124;5.196;2022-11-15T13:47:28;6.00;;;1.67;;
20734;SDS011;10528;52.124;5.196;2022-11-15T13:49:57;2.47;;;1.23;;
20734;SDS011;10528;52.124;5.196;2022-11-15T13:52:28;12.65;;;1.50;;
20734;SDS011;10528;52.124;5.196;2022-11-15T13:58:04;5.10;;;1.40;;
20734;SDS011;10528;52.124;5.196;2022-11-15T14:00:39;3.75;;;1.30;;
20734;SDS011;10528;52.124;5.196;2022-11-15T14:08:38;6.18;;;1.20;;
20734;SDS011;10528;52.124;5.196;2022-11-15T14:11:17;6.93;;;1.70;;
20734;SDS011;10528;52.124;5.196;2022-11-15T14:14:04;4.00;;;1.65;;
20734;SDS011;10528;52.124;5.196;2022-11-15T14:19:04;6.72;;;1.77;;
20734;SDS011;10528;52.124;5.196;2022-11-15T14:21:35;5.07;;;1.60;;
20734;SDS011;10528;52.124;5.196;2022-11-15T14:24:16;3.88;;;1.40;;
20734;SDS011;10528;52.124;5.196;2022-11-15T14:26:46;4.95;;;1.65;;
20734;SDS011;10528;52.124;5.196;2022-11-15T14:29:27;2.72;;;1.48;;
20734;SDS011;10528;52.124;5.196;2022-11-15T14:32:12;5.78;;;1.80;;
20734;SDS011;10528;52.124;5.196;2022-11-15T14:35:00;4.90;;;1.65;;
20734;SDS011;10528;52.124;5.196;2022-11-15T14:37:29;3.95;;;1.30;;
20734;SDS011;10528;52.124;5.196;2022-11-15T14:40:02;4.18;;;1.45;;
20734;SDS011;10528;52.124;5.196;2022-11-15T14:42:32;6.63;;;1.70;;
20734;SDS011;10528;52.124;5.196;2022-11-15T14:44:58;3.78;;;1.63;;
20734;SDS011;10528;52.124;5.196;2022-11-15T14:47:25;6.57;;;2.00;;
20734;SDS011;10528;52.124;5.196;2022-11-15T14:49:52;4.50;;;1.33;;
20734;SDS011;10528;52.124;5.196;2022-11-15T14:52:26;5.78;;;1.80;;
20734;SDS011;10528;52.124;5.196;2022-11-15T14:55:01;5.10;;;1.52;;
20734;SDS011;10528;52.124;5.196;2022-11-15T14:57:36;4.40;;;1.50;;
20734;SDS011;10528;52.124;5.196;2022-11-15T15:00:03;5.28;;;2.17;;
20734;SDS011;10528;52.124;5.196;2022-11-15T15:02:38;6.18;;;1.70;;
20734;SDS011;10528;52.124;5.196;2022-11-15T15:05:14;4.55;;;1.50;;
20734;SDS011;10528;52.124;5.196;2022-11-15T15:07:47;4.53;;;1.70;;
20734;SDS011;10528;52.124;5.196;2022-11-15T15:10:16;7.15;;;1.80;;
20734;SDS011;10528;52.124;5.196;2022-11-15T15:13:03;7.43;;;1.45;;
20734;SDS011;10528;52.124;5.196;2022-11-15T15:15:32;4.50;;;1.55;;
20734;SDS011;10528;52.124;5.196;2022-11-15T15:18:04;4.65;;;1.30;;
20734;SDS011;10528;52.124;5.196;2022-11-15T15:20:34;3.25;;;1.10;;
20734;SDS011;10528;52.124;5.196;2022-11-15T15:23:05;7.72;;;1.50;;
20734;SDS011;10528;52.124;5.196;2022-11-15T15:25:41;5.78;;;1.35;;
20734;SDS011;10528;52.124;5.196;2022-11-15T15:28:09;5.90;;;1.23;;
20734;SDS011;10528;52.124;5.196;2022-11-15T15:30:36;3.30;;;1.10;;
20734;SDS011;10528;52.124;5.196;2022-11-15T15:33:03;9.00;;;1.58;;
20734;SDS011;10528;52.124;5.196;2022-11-15T15:35:31;4.60;;;1.10;;
20734;SDS011;10528;52.124;5.196;2022-11-15T15:38:00;4.95;;;1.40;;
20734;SDS011;10528;52.124;5.196;2022-11-15T15:40:29;3.50;;;0.95;;
20734;SDS011;10528;52.124;5.196;2022-11-15T15:42:58;5.60;;;1.20;;
20734;SDS011;10528;52.124;5.196;2022-11-15T15:45:26;3.35;;;1.10;;
20734;SDS011;10528;52.124;5.196;2022-11-15T15:47:54;4.53;;;0.90;;
20734;SDS011;10528;52.124;5.196;2022-11-15T15:50:25;2.85;;;0.90;;
20734;SDS011;10528;52.124;5.196;2022-11-15T15:52:56;7.30;;;1.40;;
20734;SDS011;10528;52.124;5.196;2022-11-15T15:55:25;2.65;;;1.00;;
20734;SDS011;10528;52.124;5.196;2022-11-15T15:57:53;4.35;;;0.90;;
20734;SDS011;10528;52.124;5.196;2022-11-15T16:00:21;4.68;;;1.00;;
20734;SDS011;10528;52.124;5.196;2022-11-15T16:02:51;3.95;;;1.13;;
20734;SDS011;10528;52.124;5.196;2022-11-15T16:05:19;3.38;;;0.93;;
20734;SDS011;10528;52.124;5.196;2022-11-15T16:07:47;4.78;;;1.30;;
20734;SDS011;10528;52.124;5.196;2022-11-15T16:10:27;4.10;;;0.95;;
20734;SDS011;10528;52.124;5.196;2022-11-15T16:13:03;7.68;;;1.50;;
20734;SDS011;10528;52.124;5.196;2022-11-15T16:15:30;3.50;;;1.05;;
20734;SDS011;10528;52.124;5.196;2022-11-15T16:17:58;4.80;;;1.40;;
20734;SDS011;10528;52.124;5.196;2022-11-15T16:20:43;2.00;;;0.85;;
20734;SDS011;10528;52.124;5.196;2022-11-15T16:23:17;2.17;;;0.85;;
20734;SDS011;10528;52.124;5.196;2022-11-15T16:25:51;5.53;;;1.13;;
20734;SDS011;10528;52.124;5.196;2022-11-15T16:28:27;3.42;;;1.20;;
20734;SDS011;10528;52.124;5.196;2022-11-15T16:31:15;2.63;;;1.00;;
20734;SDS011;10528;52.124;5.196;2022-11-15T16:33:45;4.65;;;1.33;;
20734;SDS011;10528;52.124;5.196;2022-11-15T16:36:22;3.78;;;1.52;;
20734;SDS011;10528;52.124;5.196;2022-11-15T16:38:55;4.45;;;1.05;;
20734;SDS011;10528;52.124;5.196;2022-11-15T16:41:23;4.93;;;1.42;;
20734;SDS011;10528;52.124;5.196;2022-11-15T16:43:50;5.70;;;1.40;;
20734;SDS011;10528;52.124;5.196;2022-11-15T16:46:18;3.05;;;1.50;;
20734;SDS011;10528;52.124;5.196;2022-11-15T16:48:50;5.65;;;1.30;;
20734;SDS011;10528;52.124;5.196;2022-11-15T16:51:19;10.65;;;1.60;;
20734;SDS011;10528;52.124;5.196;2022-11-15T16:53:46;5.18;;;2.33;;
20734;SDS011;10528;52.124;5.196;2022-11-15T16:56:26;4.18;;;1.92;;
20734;SDS011;10528;52.124;5.196;2022-11-15T16:58:56;4.65;;;2.30;;
20734;SDS011;10528;52.124;5.196;2022-11-15T17:01:26;7.55;;;2.20;;
20734;SDS011;10528;52.124;5.196;2022-11-15T17:03:58;5.70;;;1.67;;
20734;SDS011;10528;52.124;5.196;2022-11-15T17:06:38;4.45;;;1.42;;
20734;SDS011;10528;52.124;5.196;2022-11-15T17:09:10;3.60;;;1.30;;
20734;SDS011;10528;52.124;5.196;2022-11-15T17:11:51;5.15;;;1.40;;
20734;SDS011;10528;52.124;5.196;2022-11-15T17:14:18;2.88;;;1.15;;
20734;SDS011;10528;52.124;5.196;2022-11-15T17:16:45;3.85;;;1.30;;
20734;SDS011;10528;52.124;5.196;2022-11-15T17:19:12;4.50;;;1.48;;
20734;SDS011;10528;52.124;5.196;2022-11-15T17:21:42;3.88;;;1.48;;
20734;SDS011;10528;52.124;5.196;2022-11-15T17:24:10;3.47;;;1.60;;
20734;SDS011;10528;52.124;5.196;2022-11-15T17:26:38;4.93;;;1.83;;
20734;SDS011;10528;52.124;5.196;2022-11-15T17:29:06;3.58;;;1.75;;
20734;SDS011;10528;52.124;5.196;2022-11-15T17:31:34;4.28;;;1.70;;
20734;SDS011;10528;52.124;5.196;2022-11-15T17:34:02;4.68;;;1.98;;
20734;SDS011;10528;52.124;5.196;2022-11-15T17:36:31;4.38;;;1.90;;
20734;SDS011;10528;52.124;5.196;2022-11-15T17:38:59;5.75;;;1.98;;
20734;SDS011;10528;52.124;5.196;2022-11-15T17:41:27;5.82;;;1.90;;
20734;SDS011;10528;52.124;5.196;2022-11-15T17:43:55;4.25;;;1.77;;
20734;SDS011;10528;52.124;5.196;2022-11-15T17:46:25;3.92;;;1.85;;
20734;SDS011;10528;52.124;5.196;2022-11-15T17:48:53;6.38;;;2.17;;
20734;SDS011;10528;52.124;5.196;2022-11-15T17:51:22;6.68;;;2.10;;
20734;SDS011;10528;52.124;5.196;2022-11-15T17:53:50;5.55;;;2.08;;
20734;SDS011;10528;52.124;5.196;2022-11-15T17:56:18;7.53;;;3.50;;
20734;SDS011;10528;52.124;5.196;2022-11-15T17:58:48;6.03;;;3.35;;
20734;SDS011;10528;52.124;5.196;2022-11-15T18:01:18;5.63;;;2.50;;
20734;SDS011;10528;52.124;5.196;2022-11-15T18:03:53;3.75;;;2.40;;